Asherville, Missouri
Current Conditions -  °F | °C
As of 4:53 PM on Saturday 22 Nov 2014 (Local Time) from KPOF Reporting Station
Overcast Overcast  
Wind Chill: 57°   Ceiling: 9000
Heat Index: 57°   Visibility: 10mi
Dew Point: 46°   Wind: 6mph
Humidity: 67%   Direction: 170°S
Pressure: 30.01"   Gusts: NA
Location:  36.9506°N, 90.1582°W
Report Text: KPOF 222253Z AUTO 17005KT 10SM SCT060 OVC090 14/08 A3001 RMK AO2 RAB2155E15 SLP165 P0001 T01390078
Loading
Personal Weather Stations






























Interactive Weather Map New forecast layout! Learn more

10-Day Weather Forecast

Advertisements
Track Severe Weather on mobile